Time;durP1;ratioP1;P1;durP2;ratioP2;P2;SDS_P1;SDS_P2;PMS_P1;PMS_P2;Temp;Humidity;BMP_temperature;BMP_pressure;BME280_temperature;BME280_humidity;BME280_pressure;Samples;Min_cycle;Max_cycle;Signal;HPM_P1;HPM_P2
2023/06/20 00:00:36;;;;;;;;;;;27.10;55.60;;;;;;5105577;27;42923;-76
2023/06/20 00:03:01;;;;;;;;;;;27.00;55.60;;;;;;5103571;27;43918;-74
2023/06/20 00:05:27;;;;;;;;;;;27.00;55.60;;;;;;5103955;27;43095;-74
2023/06/20 00:07:54;;;;;;;;;;;27.10;55.60;;;;;;5104982;27;43571;-75
2023/06/20 00:10:19;;;;;;;;;;;27.00;55.50;;;;;;5105162;27;42976;-74
2023/06/20 00:12:45;;;;;;;;;;;27.00;55.50;;;;;;5104167;27;43227;-74
2023/06/20 00:15:11;;;;;;;;;;;27.00;55.10;;;;;;5105557;27;42941;-74
2023/06/20 00:17:38;;;;;;;;;;;27.00;55.10;;;;;;5104950;27;42954;-73
2023/06/20 00:20:05;;;;;;;;;;;27.00;55.50;;;;;;5105321;27;42810;-74
2023/06/20 00:22:34;;;;;;;;;;;27.00;55.50;;;;;;5103137;27;43642;-74
2023/06/20 00:25:03;;;;;;;;;;;27.00;55.10;;;;;;5105303;27;42880;-74
2023/06/20 00:27:28;;;;;;;;;;;26.90;55.10;;;;;;5105131;27;44493;-74
2023/06/20 00:29:54;;;;;;;;;;;27.00;55.60;;;;;;5084532;27;43037;-74
2023/06/20 00:32:19;;;;;;;;;;;26.90;55.00;;;;;;5085319;27;42964;-74
2023/06/20 00:34:45;;;;;;;;;;;27.00;55.60;;;;;;5104691;27;42953;-73
2023/06/20 00:37:10;;;;;;;;;;;26.90;55.10;;;;;;5105838;27;43001;-74
2023/06/20 00:39:36;;;;;;;;;;;27.00;55.70;;;;;;5105245;27;43051;-74
2023/06/20 00:42:01;;;;;;;;;;;27.00;55.80;;;;;;5104898;27;43436;-73
2023/06/20 00:44:27;;;;;;;;;;;27.00;55.80;;;;;;5104239;27;42960;-74
2023/06/20 00:46:53;;;;;;;;;;;26.90;55.90;;;;;;5104706;27;42915;-75
2023/06/20 00:49:18;;;;;;;;;;;26.90;56.00;;;;;;5104696;27;43192;-74
2023/06/20 00:51:44;;;;;;;;;;;26.90;56.00;;;;;;5104461;27;44399;-80
2023/06/20 00:54:10;;;;;;;;;;;26.90;56.00;;;;;;5085638;27;42993;-75
2023/06/20 00:56:36;;;;;;;;;;;26.90;56.10;;;;;;5104922;27;43555;-74
2023/06/20 00:59:03;;;;;;;;;;;26.90;56.10;;;;;;5105435;27;42945;-74
2023/06/20 01:01:31;;;;;;;;;;;26.90;55.70;;;;;;5105295;27;43973;-74
2023/06/20 01:03:58;;;;;;;;;;;26.90;55.70;;;;;;5104119;27;42993;-74
2023/06/20 01:06:43;;;;;;;;;;;26.90;56.30;;;;;;5104817;27;43671;-75
2023/06/20 01:09:15;;;;;;;;;;;26.90;56.30;;;;;;5105633;27;43115;-74
2023/06/20 01:11:59;;;;;;;;;;;26.90;56.30;;;;;;5103981;27;43464;-73
2023/06/20 01:14:33;;;;;;;;;;;26.90;56.30;;;;;;5104925;27;42914;-74
2023/06/20 01:16:59;;;;;;;;;;;26.90;56.20;;;;;;5105349;27;43607;-75
2023/06/20 01:19:43;;;;;;;;;;;26.90;56.10;;;;;;5105061;27;42962;-74
2023/06/20 01:22:12;;;;;;;;;;;26.90;55.30;;;;;;5105266;27;42915;-74
2023/06/20 01:24:43;;;;;;;;;;;26.90;55.60;;;;;;5105050;27;43444;-75
2023/06/20 01:27:12;;;;;;;;;;;26.90;55.10;;;;;;5104442;27;43536;-75
2023/06/20 01:29:50;;;;;;;;;;;26.90;55.60;;;;;;5105352;27;42889;-75
2023/06/20 01:32:17;;;;;;;;;;;26.90;55.70;;;;;;5105046;27;43058;-74
2023/06/20 01:34:46;;;;;;;;;;;26.90;55.90;;;;;;5105076;27;42751;-75
2023/06/20 01:37:15;;;;;;;;;;;26.90;55.90;;;;;;5098591;27;44000;-74
2023/06/20 01:39:43;;;;;;;;;;;26.90;55.40;;;;;;5084707;28;43206;-74
2023/06/20 01:42:09;;;;;;;;;;;26.90;55.80;;;;;;5084781;27;42856;-77
2023/06/20 01:44:35;;;;;;;;;;;26.90;55.30;;;;;;5106325;27;42973;-74
2023/06/20 01:47:02;;;;;;;;;;;26.80;55.70;;;;;;5107947;27;42828;-74
2023/06/20 01:49:28;;;;;;;;;;;26.90;55.30;;;;;;5108500;27;42887;-75
2023/06/20 01:51:56;;;;;;;;;;;26.90;55.80;;;;;;5108408;27;42907;-75
2023/06/20 01:54:24;;;;;;;;;;;26.90;55.70;;;;;;5089898;27;43280;-74
2023/06/20 01:56:50;;;;;;;;;;;26.80;55.20;;;;;;5108220;27;43052;-74
2023/06/20 01:59:16;;;;;;;;;;;26.80;55.20;;;;;;5108567;27;43020;-74
2023/06/20 02:01:43;;;;;;;;;;;26.80;55.30;;;;;;5089475;27;44465;-75
2023/06/20 02:04:09;;;;;;;;;;;26.80;55.80;;;;;;5107664;27;43003;-74
2023/06/20 02:06:36;;;;;;;;;;;26.80;55.50;;;;;;5108280;27;42968;-74
2023/06/20 02:09:02;;;;;;;;;;;26.90;56.20;;;;;;5107627;27;42958;-79
2023/06/20 02:11:28;;;;;;;;;;;26.80;56.20;;;;;;5106908;27;42803;-74
2023/06/20 02:13:54;;;;;;;;;;;26.80;56.50;;;;;;5108059;27;42942;-74
2023/06/20 02:16:21;;;;;;;;;;;26.80;56.60;;;;;;5107765;27;43570;-75
2023/06/20 02:18:48;;;;;;;;;;;26.80;56.10;;;;;;5108041;27;42825;-75
2023/06/20 02:21:22;;;;;;;;;;;26.80;56.80;;;;;;5107450;27;43517;-76
2023/06/20 02:23:51;;;;;;;;;;;26.80;56.80;;;;;;5106142;27;43013;-76
2023/06/20 02:26:18;;;;;;;;;;;26.90;57.00;;;;;;5106545;27;43359;-75
2023/06/20 02:28:48;;;;;;;;;;;26.80;56.50;;;;;;5107161;27;42978;-74
2023/06/20 02:31:15;;;;;;;;;;;26.90;57.00;;;;;;5107088;27;43004;-74
2023/06/20 02:33:41;;;;;;;;;;;26.90;57.00;;;;;;5107442;27;42996;-74
2023/06/20 02:36:07;;;;;;;;;;;26.90;57.50;;;;;;5107756;27;42965;-75
2023/06/20 02:38:33;;;;;;;;;;;26.80;56.40;;;;;;5105687;27;42958;-75
2023/06/20 02:40:58;;;;;;;;;;;26.90;56.90;;;;;;5107510;27;43522;-74
2023/06/20 02:43:24;;;;;;;;;;;26.80;56.20;;;;;;5107152;27;42958;-74
2023/06/20 02:46:00;;;;;;;;;;;26.80;56.00;;;;;;5107348;27;42894;-74
2023/06/20 02:48:44;;;;;;;;;;;26.90;56.40;;;;;;5106194;27;42988;-74
2023/06/20 02:51:16;;;;;;;;;;;26.90;56.40;;;;;;5088761;27;43605;-74
2023/06/20 02:54:11;;;;;;;;;;;26.80;56.50;;;;;;5106730;27;42882;-73
2023/06/20 02:56:38;;;;;;;;;;;26.80;56.50;;;;;;5084363;27;42936;-75
2023/06/20 02:59:04;;;;;;;;;;;26.80;56.50;;;;;;5107178;27;42766;-75
2023/06/20 03:01:30;;;;;;;;;;;26.80;56.50;;;;;;5107347;27;42771;-74
2023/06/20 03:03:57;;;;;;;;;;;26.70;56.00;;;;;;5106767;27;42782;-77
2023/06/20 03:06:27;;;;;;;;;;;26.80;56.00;;;;;;5107017;27;42913;-76
2023/06/20 03:08:53;;;;;;;;;;;26.80;56.50;;;;;;5106737;27;43168;-76
2023/06/20 03:11:19;;;;;;;;;;;26.70;56.00;;;;;;5107027;27;43474;-75
2023/06/20 03:13:44;;;;;;;;;;;26.70;56.10;;;;;;5105561;27;43210;-75
2023/06/20 03:16:10;;;;;;;;;;;26.70;56.20;;;;;;5107111;27;43441;-77
2023/06/20 03:18:39;;;;;;;;;;;26.70;56.70;;;;;;5107210;27;43087;-75
2023/06/20 03:21:04;;;;;;;;;;;26.80;56.70;;;;;;5107195;27;43759;-75
2023/06/20 03:23:30;;;;;;;;;;;26.80;56.80;;;;;;5087891;27;45040;-75
2023/06/20 03:25:55;;;;;;;;;;;26.80;56.90;;;;;;5085660;28;44079;-75
2023/06/20 03:28:22;;;;;;;;;;;26.80;57.00;;;;;;5085923;28;42948;-76
2023/06/20 03:30:48;;;;;;;;;;;26.80;57.00;;;;;;5085538;28;44740;-75
2023/06/20 03:33:13;;;;;;;;;;;26.70;56.50;;;;;;5095338;27;43013;-76
2023/06/20 03:35:40;;;;;;;;;;;26.80;56.90;;;;;;5104091;27;43786;-76
2023/06/20 03:38:05;;;;;;;;;;;26.80;56.50;;;;;;5106303;27;42996;-75
2023/06/20 03:40:31;;;;;;;;;;;26.80;57.10;;;;;;5106187;27;43934;-75
2023/06/20 03:42:56;;;;;;;;;;;26.80;57.20;;;;;;5105680;27;42937;-81
2023/06/20 03:45:22;;;;;;;;;;;26.80;56.80;;;;;;5105485;27;43442;-81
2023/06/20 03:47:48;;;;;;;;;;;26.80;57.30;;;;;;5105828;27;43166;-80
2023/06/20 03:50:13;;;;;;;;;;;26.80;57.20;;;;;;5106051;27;43550;-80
2023/06/20 03:52:39;;;;;;;;;;;26.80;57.20;;;;;;5104430;27;43016;-79
2023/06/20 03:55:05;;;;;;;;;;;26.80;57.20;;;;;;5104728;27;43524;-79
2023/06/20 03:57:30;;;;;;;;;;;26.80;57.10;;;;;;5105791;27;42870;-81
2023/06/20 03:59:56;;;;;;;;;;;26.80;57.10;;;;;;5105892;27;43420;-80
2023/06/20 04:02:21;;;;;;;;;;;26.80;57.10;;;;;;5104712;27;42840;-79
2023/06/20 04:04:49;;;;;;;;;;;26.80;57.10;;;;;;5104512;27;42921;-78
2023/06/20 04:07:21;;;;;;;;;;;26.80;56.70;;;;;;5105583;27;42945;-80
2023/06/20 04:09:49;;;;;;;;;;;26.80;57.10;;;;;;5104267;27;42996;-81
2023/06/20 04:12:14;;;;;;;;;;;26.80;57.20;;;;;;5091764;27;42960;-80
2023/06/20 04:14:40;;;;;;;;;;;26.70;56.60;;;;;;5105101;27;45540;-79
2023/06/20 04:17:06;;;;;;;;;;;26.80;56.70;;;;;;5105420;27;42761;-77
2023/06/20 04:19:32;;;;;;;;;;;26.00;56.70;;;;;;5105334;27;43584;-80
2023/06/20 04:21:58;;;;;;;;;;;26.80;56.60;;;;;;5103126;27;42989;-80
2023/06/20 04:24:24;;;;;;;;;;;26.80;56.70;;;;;;5105049;27;43170;-78
2023/06/20 04:26:49;;;;;;;;;;;26.80;57.20;;;;;;5105886;27;43100;-78
2023/06/20 04:29:15;;;;;;;;;;;26.80;57.10;;;;;;5104333;27;43773;-79
2023/06/20 04:31:41;;;;;;;;;;;26.90;57.10;;;;;;5104622;27;42921;-80
2023/06/20 04:34:06;;;;;;;;;;;26.80;57.00;;;;;;5104510;27;42787;-78
2023/06/20 04:36:34;;;;;;;;;;;26.80;56.50;;;;;;5100844;27;43255;-79
2023/06/20 04:38:59;;;;;;;;;;;26.80;56.50;;;;;;5104963;27;43485;-75
2023/06/20 04:41:25;;;;;;;;;;;26.80;56.80;;;;;;5106131;27;42948;-78
2023/06/20 04:43:51;;;;;;;;;;;26.90;56.80;;;;;;5104850;27;43818;-79
2023/06/20 04:46:16;;;;;;;;;;;26.80;57.20;;;;;;5100252;27;43102;-79
2023/06/20 04:48:44;;;;;;;;;;;26.80;56.10;;;;;;5105344;27;43956;-78
2023/06/20 04:51:10;;;;;;;;;;;26.80;56.50;;;;;;5105207;27;43130;-79
2023/06/20 04:53:36;;;;;;;;;;;26.90;57.00;;;;;;5101902;27;43004;-77
2023/06/20 04:56:01;;;;;;;;;;;26.90;56.60;;;;;;5104529;27;43036;-78
2023/06/20 04:58:28;;;;;;;;;;;26.90;56.40;;;;;;5101554;27;43646;-74
2023/06/20 05:00:57;;;;;;;;;;;26.80;55.70;;;;;;5104682;27;42765;-74
2023/06/20 05:03:23;;;;;;;;;;;26.90;56.10;;;;;;5105000;27;42862;-74
2023/06/20 05:05:48;;;;;;;;;;;26.80;55.70;;;;;;5102918;27;43132;-75
2023/06/20 05:08:14;;;;;;;;;;;26.90;56.10;;;;;;5102882;27;43656;-80
2023/06/20 05:10:39;;;;;;;;;;;26.90;55.50;;;;;;5104428;27;42941;-75
2023/06/20 05:13:05;;;;;;;;;;;26.90;55.90;;;;;;5105010;27;43480;-73
2023/06/20 05:15:30;;;;;;;;;;;26.90;55.90;;;;;;5104966;27;42951;-74
2023/06/20 05:17:56;;;;;;;;;;;26.90;55.90;;;;;;5102670;27;43010;-74
2023/06/20 05:20:21;;;;;;;;;;;26.90;55.90;;;;;;5105836;27;43024;-75
2023/06/20 05:22:47;;;;;;;;;;;26.90;55.80;;;;;;5108048;27;42921;-75
2023/06/20 05:25:12;;;;;;;;;;;26.90;55.80;;;;;;5107814;27;43144;-74
2023/06/20 05:27:38;;;;;;;;;;;26.90;55.80;;;;;;5107853;27;42933;-75
2023/06/20 05:30:04;;;;;;;;;;;26.90;55.70;;;;;;5108624;27;42828;-74
2023/06/20 05:32:30;;;;;;;;;;;26.90;55.70;;;;;;5108257;27;42964;-73
2023/06/20 05:34:55;;;;;;;;;;;26.90;55.70;;;;;;5108314;27;43012;-77
2023/06/20 05:37:21;;;;;;;;;;;26.90;55.70;;;;;;5108210;27;42859;-74
2023/06/20 05:39:46;;;;;;;;;;;26.90;55.70;;;;;;5107916;27;43072;-84
2023/06/20 05:42:12;;;;;;;;;;;26.90;55.20;;;;;;5108118;27;43368;-76
2023/06/20 05:44:37;;;;;;;;;;;26.90;55.20;;;;;;5107887;27;43059;-74
2023/06/20 05:47:03;;;;;;;;;;;26.90;55.60;;;;;;5088780;27;44335;-76
2023/06/20 05:49:29;;;;;;;;;;;26.90;55.60;;;;;;5107863;27;42905;-74
2023/06/20 05:51:55;;;;;;;;;;;26.90;55.20;;;;;;5108269;27;42953;-74
2023/06/20 05:54:24;;;;;;;;;;;26.90;55.80;;;;;;5087205;27;43084;-74
2023/06/20 05:56:50;;;;;;;;;;;26.90;55.90;;;;;;5108040;27;42883;-74
2023/06/20 05:59:15;;;;;;;;;;;26.90;55.80;;;;;;5108121;27;42982;-74
2023/06/20 06:01:41;;;;;;;;;;;26.90;56.40;;;;;;5107758;27;43624;-74
2023/06/20 06:04:07;;;;;;;;;;;26.90;56.40;;;;;;5105189;27;43123;-75
2023/06/20 06:06:32;;;;;;;;;;;26.90;56.40;;;;;;5106146;27;42924;-74
2023/06/20 06:08:58;;;;;;;;;;;26.90;56.40;;;;;;5104964;27;43166;-74
2023/06/20 06:11:25;;;;;;;;;;;26.90;56.40;;;;;;5104710;27;43851;-75
2023/06/20 06:13:51;;;;;;;;;;;26.90;56.40;;;;;;5107388;27;42875;-75
2023/06/20 06:16:17;;;;;;;;;;;26.90;56.40;;;;;;5098933;27;42997;-80
2023/06/20 06:18:43;;;;;;;;;;;26.90;56.30;;;;;;5103211;27;43019;-74
2023/06/20 06:21:09;;;;;;;;;;;26.90;56.40;;;;;;5085823;27;42909;-75
2023/06/20 06:23:34;;;;;;;;;;;23.00;53.70;;;;;;5106687;27;42954;-75
2023/06/20 06:26:00;;;;;;;;;;;26.90;56.40;;;;;;5106476;27;45010;-74
2023/06/20 06:28:28;;;;;;;;;;;26.90;56.30;;;;;;5106536;27;42900;-74
2023/06/20 06:30:53;;;;;;;;;;;26.90;55.80;;;;;;5105377;27;44832;-75
2023/06/20 06:33:19;;;;;;;;;;;26.90;56.30;;;;;;5104618;27;43221;-75
2023/06/20 06:35:45;;;;;;;;;;;26.90;56.30;;;;;;5088570;27;44471;-76
2023/06/20 06:38:11;;;;;;;;;;;26.90;56.30;;;;;;5106214;27;42977;-75
2023/06/20 06:40:36;;;;;;;;;;;26.90;56.30;;;;;;5107259;27;43571;-75
2023/06/20 06:43:02;;;;;;;;;;;26.90;56.30;;;;;;5108094;27;43020;-75
2023/06/20 06:45:27;;;;;;;;;;;26.90;55.80;;;;;;5107937;27;43582;-75
2023/06/20 06:47:54;;;;;;;;;;;26.90;55.80;;;;;;5107925;27;42879;-74
2023/06/20 06:50:20;;;;;;;;;;;27.00;56.30;;;;;;5106751;27;43451;-75
2023/06/20 06:52:45;;;;;;;;;;;26.90;56.20;;;;;;5108062;27;42847;-75
2023/06/20 06:55:11;;;;;;;;;;;27.00;56.30;;;;;;5107607;27;43736;-75
2023/06/20 06:57:36;;;;;;;;;;;26.90;55.80;;;;;;5107696;27;43038;-74
2023/06/20 07:00:09;;;;;;;;;;;26.90;55.80;;;;;;5107159;27;43574;-74
2023/06/20 07:02:34;;;;;;;;;;;26.90;55.80;;;;;;5107331;27;43027;-74
2023/06/20 07:05:00;;;;;;;;;;;27.00;56.30;;;;;;5106696;27;42846;-75
2023/06/20 07:07:25;;;;;;;;;;;27.00;56.30;;;;;;5106809;27;42965;-74
2023/06/20 07:09:51;;;;;;;;;;;27.00;55.90;;;;;;5107296;27;42755;-75
2023/06/20 07:12:16;;;;;;;;;;;27.00;56.30;;;;;;5107365;27;42912;-74
2023/06/20 07:14:42;;;;;;;;;;;27.00;56.30;;;;;;5107171;27;43791;-75
2023/06/20 07:17:07;;;;;;;;;;;26.90;55.80;;;;;;5107402;27;43005;-74
2023/06/20 07:19:33;;;;;;;;;;;27.00;55.80;;;;;;5106957;27;42928;-75
2023/06/20 07:21:58;;;;;;;;;;;27.00;56.30;;;;;;5107738;27;43035;-76
2023/06/20 07:24:24;;;;;;;;;;;27.00;56.30;;;;;;5107059;27;42840;-81
2023/06/20 07:26:49;;;;;;;;;;;27.00;55.90;;;;;;5107258;27;43002;-75
2023/06/20 07:29:15;;;;;;;;;;;27.00;55.90;;;;;;5106709;27;43442;-75
2023/06/20 07:31:40;;;;;;;;;;;27.00;56.40;;;;;;5106679;27;43013;-74
2023/06/20 07:34:06;;;;;;;;;;;27.10;56.00;;;;;;5106854;27;43502;-75
2023/06/20 07:36:31;;;;;;;;;;;27.10;56.50;;;;;;5106923;27;42895;-75
2023/06/20 07:38:57;;;;;;;;;;;27.10;57.00;;;;;;5106931;27;42984;-75
2023/06/20 07:41:22;;;;;;;;;;;27.00;56.00;;;;;;5106140;27;43093;-75
2023/06/20 07:43:48;;;;;;;;;;;27.10;56.60;;;;;;5106716;27;43345;-81
2023/06/20 07:46:13;;;;;;;;;;;27.00;56.00;;;;;;5106817;27;42862;-75
2023/06/20 07:48:39;;;;;;;;;;;27.10;56.60;;;;;;5105465;27;42803;-74
2023/06/20 07:51:04;;;;;;;;;;;27.10;56.50;;;;;;5106607;27;42992;-75
2023/06/20 07:53:30;;;;;;;;;;;27.10;56.60;;;;;;5105391;27;43021;-75
2023/06/20 07:55:55;;;;;;;;;;;27.10;56.60;;;;;;5106172;27;42999;-75
2023/06/20 07:58:21;;;;;;;;;;;27.10;56.60;;;;;;5107041;27;43104;-75
2023/06/20 08:00:47;;;;;;;;;;;27.10;56.10;;;;;;5106287;27;42996;-75
2023/06/20 08:03:12;;;;;;;;;;;27.10;56.70;;;;;;5106650;27;43581;-75
2023/06/20 08:05:38;;;;;;;;;;;27.10;56.20;;;;;;5106376;27;42988;-74
2023/06/20 08:08:03;;;;;;;;;;;27.10;56.30;;;;;;5106483;27;43860;-74
2023/06/20 08:10:29;;;;;;;;;;;27.20;56.30;;;;;;5106475;27;42933;-75
2023/06/20 08:12:54;;;;;;;;;;;27.20;56.40;;;;;;5105814;27;43965;-76
2023/06/20 08:15:20;;;;;;;;;;;27.10;56.30;;;;;;5106488;27;42981;-74
2023/06/20 08:17:45;;;;;;;;;;;27.20;56.40;;;;;;5087445;27;44594;-79
2023/06/20 08:20:11;;;;;;;;;;;27.20;56.90;;;;;;5106878;27;42952;-76
2023/06/20 08:22:37;;;;;;;;;;;27.30;56.90;;;;;;5105945;27;43446;-74
2023/06/20 08:25:03;;;;;;;;;;;27.20;56.90;;;;;;5105964;27;43031;-74
2023/06/20 08:27:28;;;;;;;;;;;27.20;56.80;;;;;;5105503;27;44286;-75
2023/06/20 08:29:54;;;;;;;;;;;27.20;56.80;;;;;;5105978;27;42759;-75
2023/06/20 08:32:20;;;;;;;;;;;27.20;56.80;;;;;;5105567;27;43333;-82
2023/06/20 08:34:49;;;;;;;;;;;27.20;56.90;;;;;;5105199;27;43016;-75
2023/06/20 08:37:16;;;;;;;;;;;27.20;56.40;;;;;;5087327;27;45422;-76
2023/06/20 08:39:42;;;;;;;;;;;27.20;56.90;;;;;;5105687;27;42894;-74
2023/06/20 08:42:08;;;;;;;;;;;27.20;56.50;;;;;;5105805;27;42989;-74
2023/06/20 08:44:34;;;;;;;;;;;27.20;57.10;;;;;;5106194;27;42806;-74
2023/06/20 08:46:59;;;;;;;;;;;27.20;56.60;;;;;;5105713;27;42843;-75
2023/06/20 08:49:25;;;;;;;;;;;27.20;57.20;;;;;;5105661;27;42889;-75
2023/06/20 08:51:52;;;;;;;;;;;27.20;57.20;;;;;;5105064;27;42818;-75
2023/06/20 08:54:19;;;;;;;;;;;27.20;57.20;;;;;;5105246;27;42933;-75
2023/06/20 08:56:47;;;;;;;;;;;27.30;56.80;;;;;;5104393;27;42917;-84
2023/06/20 08:59:12;;;;;;;;;;;27.20;56.70;;;;;;5105632;27;42910;-74
2023/06/20 09:01:38;;;;;;;;;;;27.20;56.80;;;;;;5104818;27;42946;-74
2023/06/20 09:04:05;;;;;;;;;;;27.30;56.90;;;;;;5086254;27;42971;-75
2023/06/20 09:06:31;;;;;;;;;;;27.30;56.90;;;;;;5086047;27;43490;-80
2023/06/20 09:08:56;;;;;;;;;;;27.20;57.30;;;;;;5105320;27;42942;-75
2023/06/20 09:11:24;;;;;;;;;;;27.30;56.90;;;;;;5105021;27;44280;-74
2023/06/20 09:13:50;;;;;;;;;;;27.30;57.00;;;;;;5086930;27;42948;-85
2023/06/20 09:16:15;;;;;;;;;;;27.30;57.00;;;;;;5105378;27;43001;-74
2023/06/20 09:18:41;;;;;;;;;;;27.30;57.40;;;;;;5105084;27;42964;-75
2023/06/20 09:21:13;;;;;;;;;;;27.30;57.40;;;;;;5104676;27;42953;-75
2023/06/20 09:23:39;;;;;;;;;;;27.30;56.90;;;;;;5105518;27;43039;-82
2023/06/20 09:26:15;;;;;;;;;;;27.30;56.90;;;;;;5105335;27;43609;-74
2023/06/20 09:28:40;;;;;;;;;;;27.30;56.80;;;;;;5105218;27;42935;-74
2023/06/20 09:31:06;;;;;;;;;;;27.30;57.30;;;;;;5104626;27;43270;-75
2023/06/20 09:33:35;;;;;;;;;;;27.30;56.70;;;;;;5105214;27;43124;-78
2023/06/20 09:36:14;;;;;;;;;;;27.30;57.20;;;;;;5105418;27;42761;-75
2023/06/20 09:38:43;;;;;;;;;;;27.30;56.70;;;;;;5086969;27;42923;-75
2023/06/20 09:41:08;;;;;;;;;;;27.30;56.70;;;;;;5084354;27;44390;-75
2023/06/20 09:43:34;;;;;;;;;;;27.30;57.20;;;;;;5103922;27;42972;-75
2023/06/20 09:46:00;;;;;;;;;;;27.30;56.80;;;;;;5103910;27;42972;-74
2023/06/20 09:48:26;;;;;;;;;;;27.30;56.90;;;;;;5104409;27;43076;-74
2023/06/20 09:50:54;;;;;;;;;;;27.30;57.40;;;;;;5104224;27;43743;-75
2023/06/20 09:53:27;;;;;;;;;;;27.30;57.50;;;;;;5104308;27;42905;-74
2023/06/20 09:55:54;;;;;;;;;;;27.30;57.00;;;;;;5101883;27;43004;-81
2023/06/20 09:58:21;;;;;;;;;;;27.30;57.50;;;;;;5104309;27;42963;-74
2023/06/20 10:00:49;;;;;;;;;;;27.30;57.60;;;;;;5102021;27;43521;-74
2023/06/20 10:03:15;;;;;;;;;;;27.30;57.20;;;;;;5104990;27;42905;-74
2023/06/20 10:05:41;;;;;;;;;;;27.30;57.80;;;;;;5107585;27;43004;-75
2023/06/20 10:08:07;;;;;;;;;;;27.30;57.80;;;;;;5105069;27;42776;-75
2023/06/20 10:10:32;;;;;;;;;;;27.30;57.80;;;;;;5107025;27;42984;-74
2023/06/20 10:12:58;;;;;;;;;;;27.30;57.90;;;;;;5107904;27;42838;-75
2023/06/20 10:15:24;;;;;;;;;;;27.30;57.40;;;;;;5107778;27;43397;-75
2023/06/20 10:17:50;;;;;;;;;;;27.30;57.40;;;;;;5107735;27;42950;-76
2023/06/20 10:20:29;;;;;;;;;;;27.30;57.60;;;;;;5107250;27;43951;-74
2023/06/20 10:22:58;;;;;;;;;;;27.30;57.60;;;;;;5108579;27;43124;-75
2023/06/20 10:25:25;;;;;;;;;;;27.30;58.00;;;;;;5087338;27;44511;-75
2023/06/20 10:27:51;;;;;;;;;;;27.30;57.60;;;;;;5106691;27;42942;-75
2023/06/20 10:30:36;;;;;;;;;;;27.30;58.10;;;;;;5107659;27;43705;-75
2023/06/20 10:33:08;;;;;;;;;;;27.30;58.20;;;;;;5104011;27;42771;-75
2023/06/20 10:35:34;;;;;;;;;;;27.40;58.20;;;;;;5105988;27;43051;-75
2023/06/20 10:38:08;;;;;;;;;;;27.30;58.40;;;;;;5104962;27;43339;-75
2023/06/20 10:40:34;;;;;;;;;;;27.30;58.30;;;;;;5106007;27;43342;-75
2023/06/20 10:42:59;;;;;;;;;;;27.40;58.40;;;;;;5106558;27;43011;-75
2023/06/20 10:45:27;;;;;;;;;;;27.40;58.50;;;;;;5106194;27;43759;-75
2023/06/20 10:48:01;;;;;;;;;;;27.40;58.50;;;;;;5106404;27;42993;-74
2023/06/20 10:50:26;;;;;;;;;;;27.40;58.20;;;;;;5105210;27;43155;-75
2023/06/20 10:52:52;;;;;;;;;;;27.40;58.10;;;;;;5105369;27;43095;-74
2023/06/20 10:55:22;;;;;;;;;;;27.40;58.70;;;;;;5106332;27;43007;-74
2023/06/20 10:57:48;;;;;;;;;;;27.30;58.60;;;;;;5105733;27;42905;-74
2023/06/20 11:00:17;;;;;;;;;;;27.30;58.60;;;;;;5105459;27;43020;-74
2023/06/20 11:02:43;;;;;;;;;;;27.40;58.70;;;;;;5106273;27;42998;-75
2023/06/20 11:05:09;;;;;;;;;;;27.30;58.30;;;;;;5105980;27;43920;-73
2023/06/20 11:07:36;;;;;;;;;;;27.40;58.40;;;;;;5106440;27;43267;-75
2023/06/20 11:10:14;;;;;;;;;;;27.40;58.90;;;;;;5104416;27;44498;-80
2023/06/20 11:12:40;;;;;;;;;;;27.40;58.90;;;;;;5102525;27;42998;-74
2023/06/20 11:15:19;;;;;;;;;;;27.40;59.00;;;;;;5105210;27;42940;-75
2023/06/20 11:17:45;;;;;;;;;;;27.40;59.00;;;;;;5104509;27;42929;-73
2023/06/20 11:20:11;;;;;;;;;;;27.40;59.20;;;;;;5105946;27;42975;-75
2023/06/20 11:22:37;;;;;;;;;;;27.40;58.70;;;;;;5103050;27;42755;-75
2023/06/20 11:25:03;;;;;;;;;;;27.40;58.70;;;;;;5106156;27;44591;-74
2023/06/20 11:27:29;;;;;;;;;;;27.40;59.10;;;;;;5105802;27;43025;-75
2023/06/20 11:29:56;;;;;;;;;;;27.40;58.90;;;;;;5104566;27;62425;-74
2023/06/20 11:32:22;;;;;;;;;;;27.40;59.40;;;;;;5102503;27;43044;-75
2023/06/20 11:34:54;;;;;;;;;;;27.40;59.30;;;;;;5102512;27;42970;-89
2023/06/20 11:37:20;;;;;;;;;;;27.40;59.50;;;;;;5105927;27;42922;-74
2023/06/20 11:39:46;;;;;;;;;;;27.40;59.50;;;;;;5105948;27;43064;-74
2023/06/20 11:42:15;;;;;;;;;;;27.40;59.10;;;;;;5100888;27;42972;-76
2023/06/20 11:44:40;;;;;;;;;;;27.40;59.60;;;;;;5084532;27;43828;-74
2023/06/20 11:47:06;;;;;;;;;;;27.40;59.10;;;;;;5106210;27;42819;-75
2023/06/20 11:49:32;;;;;;;;;;;27.40;59.60;;;;;;5104933;27;43299;-75
2023/06/20 11:51:58;;;;;;;;;;;27.40;59.20;;;;;;5106569;27;42976;-75
2023/06/20 11:54:24;;;;;;;;;;;27.40;59.10;;;;;;5103974;27;43821;-81
2023/06/20 11:56:50;;;;;;;;;;;27.40;59.10;;;;;;5104886;27;43047;-75
2023/06/20 11:59:25;;;;;;;;;;;27.40;59.10;;;;;;5104454;27;43079;-80
2023/06/20 12:01:51;;;;;;;;;;;27.40;59.10;;;;;;5085006;27;43352;-75
2023/06/20 12:04:20;;;;;;;;;;;27.40;59.10;;;;;;5106785;27;42895;-76
2023/06/20 12:06:48;;;;;;;;;;;27.40;59.10;;;;;;5106558;27;42929;-74
2023/06/20 12:09:18;;;;;;;;;;;27.40;59.40;;;;;;5106459;27;42834;-74
2023/06/20 12:11:47;;;;;;;;;;;27.40;59.00;;;;;;5087733;27;43101;-75
2023/06/20 12:14:14;;;;;;;;;;;27.40;59.10;;;;;;5106064;27;43409;-75
2023/06/20 12:16:40;;;;;;;;;;;27.40;59.10;;;;;;5106365;27;42959;-83
2023/06/20 12:19:05;;;;;;;;;;;27.40;59.10;;;;;;5105981;27;43035;-79
2023/06/20 12:21:31;;;;;;;;;;;27.40;59.10;;;;;;5105316;27;42842;-87
2023/06/20 12:23:57;;;;;;;;;;;27.40;59.10;;;;;;5087449;27;45144;-76
2023/06/20 12:26:22;;;;;;;;;;;27.40;59.10;;;;;;5106287;27;42907;-79
2023/06/20 12:28:48;;;;;;;;;;;27.40;58.90;;;;;;5105215;27;43845;-85
2023/06/20 12:31:14;;;;;;;;;;;27.40;59.00;;;;;;5087587;27;42888;-81
2023/06/20 12:33:40;;;;;;;;;;;27.50;59.10;;;;;;5106635;27;43855;-74
2023/06/20 12:36:06;;;;;;;;;;;27.40;59.00;;;;;;5106455;27;42930;-75
2023/06/20 12:38:31;;;;;;;;;;;27.40;59.10;;;;;;5108210;27;43504;-80
2023/06/20 12:40:57;;;;;;;;;;;27.40;59.60;;;;;;5105999;27;42942;-73
2023/06/20 12:43:23;;;;;;;;;;;27.40;59.50;;;;;;5105544;27;43911;-74
2023/06/20 12:45:48;;;;;;;;;;;27.40;59.10;;;;;;5105395;27;43022;-79
2023/06/20 12:48:14;;;;;;;;;;;27.40;59.60;;;;;;5106054;27;43531;-74
2023/06/20 12:50:40;;;;;;;;;;;27.50;59.60;;;;;;5106196;27;42811;-74
2023/06/20 12:53:05;;;;;;;;;;;27.40;59.20;;;;;;5106023;27;43775;-77
2023/06/20 12:55:31;;;;;;;;;;;27.50;59.50;;;;;;5105256;27;42913;-75
2023/06/20 12:57:57;;;;;;;;;;;27.50;59.50;;;;;;5105283;27;43406;-74
2023/06/20 13:00:23;;;;;;;;;;;27.40;59.00;;;;;;5105882;27;42851;-74
2023/06/20 13:02:48;;;;;;;;;;;27.50;59.40;;;;;;5105871;27;42973;-78
2023/06/20 13:05:14;;;;;;;;;;;27.40;58.90;;;;;;5086333;27;43059;-90
2023/06/20 13:07:40;;;;;;;;;;;27.50;58.90;;;;;;5105273;27;42873;-74
2023/06/20 13:10:06;;;;;;;;;;;27.50;59.00;;;;;;5086743;27;42918;-77
2023/06/20 13:12:34;;;;;;;;;;;27.50;59.40;;;;;;5105215;27;42881;-74
2023/06/20 13:15:00;;;;;;;;;;;27.40;58.90;;;;;;5105749;27;43004;-74
2023/06/20 13:17:26;;;;;;;;;;;27.40;58.90;;;;;;5105717;27;42890;-74
2023/06/20 13:19:52;;;;;;;;;;;27.50;59.50;;;;;;5105284;27;42953;-74
2023/06/20 13:22:17;;;;;;;;;;;27.50;59.40;;;;;;5104075;27;43716;-74
2023/06/20 13:24:44;;;;;;;;;;;27.40;59.30;;;;;;5105402;27;42924;-75
2023/06/20 13:27:10;;;;;;;;;;;27.50;58.80;;;;;;5105324;27;42890;-74
2023/06/20 13:29:36;;;;;;;;;;;27.40;58.80;;;;;;5105477;27;42949;-76
2023/06/20 13:32:02;;;;;;;;;;;27.50;59.30;;;;;;5105529;27;43635;-76
2023/06/20 13:34:28;;;;;;;;;;;27.50;59.20;;;;;;5105192;27;42968;-76
2023/06/20 13:36:54;;;;;;;;;;;27.40;58.70;;;;;;5104844;27;43519;-74
2023/06/20 13:39:20;;;;;;;;;;;27.40;58.60;;;;;;5107188;27;42835;-74
2023/06/20 13:41:45;;;;;;;;;;;27.50;58.60;;;;;;5108440;27;44179;-77
2023/06/20 13:44:11;;;;;;;;;;;27.50;59.10;;;;;;5108856;27;42917;-74
2023/06/20 13:46:37;;;;;;;;;;;27.50;59.00;;;;;;5108605;27;43047;-88
2023/06/20 13:49:03;;;;;;;;;;;27.40;58.60;;;;;;5108980;27;42850;-75
2023/06/20 13:51:28;;;;;;;;;;;27.40;59.00;;;;;;5108678;27;43075;-74
2023/06/20 13:53:55;;;;;;;;;;;27.40;58.50;;;;;;5107922;27;42882;-74
2023/06/20 13:56:21;;;;;;;;;;;27.40;59.00;;;;;;5107774;27;43664;-77
2023/06/20 13:58:46;;;;;;;;;;;27.40;58.50;;;;;;5107874;27;43093;-77
2023/06/20 14:01:13;;;;;;;;;;;27.50;58.90;;;;;;5088977;27;43165;-74
2023/06/20 14:03:39;;;;;;;;;;;27.50;58.90;;;;;;5107862;27;43067;-75
2023/06/20 14:06:05;;;;;;;;;;;27.50;58.80;;;;;;5108213;27;42966;-74
2023/06/20 14:08:30;;;;;;;;;;;27.40;58.70;;;;;;5107989;27;42950;-74
2023/06/20 14:10:56;;;;;;;;;;;27.40;58.30;;;;;;5107854;27;43546;-74
2023/06/20 14:13:22;;;;;;;;;;;27.40;58.70;;;;;;5107638;27;42949;-76